sensor_id;sensor_type;location;lat;lon;timestamp;P1;durP1;ratioP1;P2;durP2;ratioP2
66095;SDS011;53861;53.422;14.530;2023-05-16T00:01:56;14.93;;;8.05;;
66095;SDS011;53861;53.422;14.530;2023-05-16T00:04:24;13.45;;;8.32;;
66095;SDS011;53861;53.422;14.530;2023-05-16T00:06:52;16.08;;;8.82;;
66095;SDS011;53861;53.422;14.530;2023-05-16T00:09:21;16.33;;;8.77;;
66095;SDS011;53861;53.422;14.530;2023-05-16T00:11:53;16.63;;;9.18;;
66095;SDS011;53861;53.422;14.530;2023-05-16T00:14:25;14.18;;;8.98;;
66095;SDS011;53861;53.422;14.530;2023-05-16T00:16:55;15.68;;;9.38;;
66095;SDS011;53861;53.422;14.530;2023-05-16T00:19:23;17.15;;;9.70;;
66095;SDS011;53861;53.422;14.530;2023-05-16T00:21:52;15.82;;;9.35;;
66095;SDS011;53861;53.422;14.530;2023-05-16T00:24:19;17.83;;;10.57;;
66095;SDS011;53861;53.422;14.530;2023-05-16T00:26:48;17.05;;;9.98;;
66095;SDS011;53861;53.422;14.530;2023-05-16T00:29:17;19.20;;;10.40;;
66095;SDS011;53861;53.422;14.530;2023-05-16T00:31:52;16.90;;;10.90;;
66095;SDS011;53861;53.422;14.530;2023-05-16T00:34:21;18.25;;;10.57;;
66095;SDS011;53861;53.422;14.530;2023-05-16T00:36:51;17.02;;;10.07;;
66095;SDS011;53861;53.422;14.530;2023-05-16T00:39:21;19.20;;;10.82;;
66095;SDS011;53861;53.422;14.530;2023-05-16T00:41:51;20.67;;;10.90;;
66095;SDS011;53861;53.422;14.530;2023-05-16T00:44:20;18.77;;;10.85;;
66095;SDS011;53861;53.422;14.530;2023-05-16T00:46:50;19.08;;;10.20;;
66095;SDS011;53861;53.422;14.530;2023-05-16T00:49:23;19.95;;;10.02;;
66095;SDS011;53861;53.422;14.530;2023-05-16T00:51:50;19.35;;;8.93;;
66095;SDS011;53861;53.422;14.530;2023-05-16T00:54:21;15.13;;;8.77;;
66095;SDS011;53861;53.422;14.530;2023-05-16T00:56:50;18.58;;;8.98;;
66095;SDS011;53861;53.422;14.530;2023-05-16T00:59:18;19.70;;;8.77;;
66095;SDS011;53861;53.422;14.530;2023-05-16T01:01:47;15.52;;;9.35;;
66095;SDS011;53861;53.422;14.530;2023-05-16T01:04:21;17.13;;;9.43;;
66095;SDS011;53861;53.422;14.530;2023-05-16T01:06:58;17.35;;;9.75;;
66095;SDS011;53861;53.422;14.530;2023-05-16T01:09:27;16.92;;;9.32;;
66095;SDS011;53861;53.422;14.530;2023-05-16T01:11:58;18.17;;;9.50;;
66095;SDS011;53861;53.422;14.530;2023-05-16T01:14:45;17.23;;;9.90;;
66095;SDS011;53861;53.422;14.530;2023-05-16T01:17:25;17.73;;;10.07;;
66095;SDS011;53861;53.422;14.530;2023-05-16T01:20:06;18.83;;;11.32;;
66095;SDS011;53861;53.422;14.530;2023-05-16T01:22:51;20.73;;;10.95;;
66095;SDS011;53861;53.422;14.530;2023-05-16T01:25:34;21.60;;;12.00;;
66095;SDS011;53861;53.422;14.530;2023-05-16T01:28:16;20.20;;;11.55;;
66095;SDS011;53861;53.422;14.530;2023-05-16T01:30:45;20.55;;;11.88;;
66095;SDS011;53861;53.422;14.530;2023-05-16T01:33:12;22.10;;;12.27;;
66095;SDS011;53861;53.422;14.530;2023-05-16T01:35:42;23.85;;;12.23;;
66095;SDS011;53861;53.422;14.530;2023-05-16T01:38:23;22.33;;;12.45;;
66095;SDS011;53861;53.422;14.530;2023-05-16T01:40:53;24.95;;;13.45;;
66095;SDS011;53861;53.422;14.530;2023-05-16T01:43:32;25.73;;;13.43;;
66095;SDS011;53861;53.422;14.530;2023-05-16T01:46:02;26.00;;;13.07;;
66095;SDS011;53861;53.422;14.530;2023-05-16T01:48:37;24.88;;;13.20;;
66095;SDS011;53861;53.422;14.530;2023-05-16T01:51:20;24.63;;;12.80;;
66095;SDS011;53861;53.422;14.530;2023-05-16T01:53:50;24.30;;;12.77;;
66095;SDS011;53861;53.422;14.530;2023-05-16T01:56:20;24.17;;;12.82;;
66095;SDS011;53861;53.422;14.530;2023-05-16T01:58:50;23.88;;;12.52;;
66095;SDS011;53861;53.422;14.530;2023-05-16T02:01:20;22.77;;;12.30;;
66095;SDS011;53861;53.422;14.530;2023-05-16T02:03:48;22.52;;;13.10;;
66095;SDS011;53861;53.422;14.530;2023-05-16T02:06:16;24.67;;;12.52;;
66095;SDS011;53861;53.422;14.530;2023-05-16T02:08:45;24.90;;;13.20;;
66095;SDS011;53861;53.422;14.530;2023-05-16T02:11:14;27.83;;;13.93;;
66095;SDS011;53861;53.422;14.530;2023-05-16T02:13:41;26.65;;;14.35;;
66095;SDS011;53861;53.422;14.530;2023-05-16T02:16:12;26.80;;;13.65;;
66095;SDS011;53861;53.422;14.530;2023-05-16T02:18:39;29.33;;;13.85;;
66095;SDS011;53861;53.422;14.530;2023-05-16T02:21:07;28.08;;;13.27;;
66095;SDS011;53861;53.422;14.530;2023-05-16T02:23:37;29.20;;;14.23;;
66095;SDS011;53861;53.422;14.530;2023-05-16T02:26:06;29.00;;;14.23;;
66095;SDS011;53861;53.422;14.530;2023-05-16T02:28:36;34.88;;;16.45;;
66095;SDS011;53861;53.422;14.530;2023-05-16T02:31:04;52.25;;;23.35;;
66095;SDS011;53861;53.422;14.530;2023-05-16T02:33:34;39.80;;;19.88;;
66095;SDS011;53861;53.422;14.530;2023-05-16T02:36:01;33.45;;;15.85;;
66095;SDS011;53861;53.422;14.530;2023-05-16T02:38:31;34.25;;;15.68;;
66095;SDS011;53861;53.422;14.530;2023-05-16T02:40:59;32.85;;;16.15;;
66095;SDS011;53861;53.422;14.530;2023-05-16T02:43:26;35.60;;;16.40;;
66095;SDS011;53861;53.422;14.530;2023-05-16T02:45:56;34.38;;;16.25;;
66095;SDS011;53861;53.422;14.530;2023-05-16T02:48:24;33.65;;;16.08;;
66095;SDS011;53861;53.422;14.530;2023-05-16T02:50:53;36.05;;;16.20;;
66095;SDS011;53861;53.422;14.530;2023-05-16T02:53:21;35.03;;;16.05;;
66095;SDS011;53861;53.422;14.530;2023-05-16T02:55:54;39.63;;;16.55;;
66095;SDS011;53861;53.422;14.530;2023-05-16T02:58:24;37.47;;;16.23;;
66095;SDS011;53861;53.422;14.530;2023-05-16T03:00:51;38.08;;;16.30;;
66095;SDS011;53861;53.422;14.530;2023-05-16T03:03:19;35.90;;;15.80;;
66095;SDS011;53861;53.422;14.530;2023-05-16T03:05:48;38.53;;;16.05;;
66095;SDS011;53861;53.422;14.530;2023-05-16T03:08:17;38.42;;;17.80;;
66095;SDS011;53861;53.422;14.530;2023-05-16T03:10:50;38.20;;;17.83;;
66095;SDS011;53861;53.422;14.530;2023-05-16T03:13:20;43.13;;;18.80;;
66095;SDS011;53861;53.422;14.530;2023-05-16T03:15:50;41.40;;;16.63;;
66095;SDS011;53861;53.422;14.530;2023-05-16T03:18:20;44.25;;;17.45;;
66095;SDS011;53861;53.422;14.530;2023-05-16T03:20:50;38.95;;;17.27;;
66095;SDS011;53861;53.422;14.530;2023-05-16T03:23:23;41.33;;;16.27;;
66095;SDS011;53861;53.422;14.530;2023-05-16T03:25:51;35.20;;;15.57;;
66095;SDS011;53861;53.422;14.530;2023-05-16T03:28:23;36.58;;;15.95;;
66095;SDS011;53861;53.422;14.530;2023-05-16T03:30:50;39.95;;;18.15;;
66095;SDS011;53861;53.422;14.530;2023-05-16T03:33:18;39.67;;;16.33;;
66095;SDS011;53861;53.422;14.530;2023-05-16T03:35:45;38.47;;;16.17;;
66095;SDS011;53861;53.422;14.530;2023-05-16T03:38:15;42.28;;;17.85;;
66095;SDS011;53861;53.422;14.530;2023-05-16T03:40:44;45.67;;;18.58;;
66095;SDS011;53861;53.422;14.530;2023-05-16T03:43:11;42.70;;;17.88;;
66095;SDS011;53861;53.422;14.530;2023-05-16T03:45:41;53.60;;;18.83;;
66095;SDS011;53861;53.422;14.530;2023-05-16T03:48:09;46.92;;;19.10;;
66095;SDS011;53861;53.422;14.530;2023-05-16T03:50:36;47.78;;;19.27;;
66095;SDS011;53861;53.422;14.530;2023-05-16T03:53:04;43.70;;;18.08;;
66095;SDS011;53861;53.422;14.530;2023-05-16T03:55:37;47.10;;;19.23;;
66095;SDS011;53861;53.422;14.530;2023-05-16T03:58:06;47.67;;;19.23;;
66095;SDS011;53861;53.422;14.530;2023-05-16T04:00:41;50.33;;;19.48;;
66095;SDS011;53861;53.422;14.530;2023-05-16T04:03:11;52.65;;;20.00;;
66095;SDS011;53861;53.422;14.530;2023-05-16T04:05:40;52.20;;;20.40;;
66095;SDS011;53861;53.422;14.530;2023-05-16T04:08:22;56.20;;;20.92;;
66095;SDS011;53861;53.422;14.530;2023-05-16T04:10:49;54.80;;;21.70;;
66095;SDS011;53861;53.422;14.530;2023-05-16T04:13:17;62.30;;;22.20;;
66095;SDS011;53861;53.422;14.530;2023-05-16T04:15:45;68.40;;;24.73;;
66095;SDS011;53861;53.422;14.530;2023-05-16T04:18:12;58.90;;;21.20;;
66095;SDS011;53861;53.422;14.530;2023-05-16T04:20:40;71.63;;;24.63;;
66095;SDS011;53861;53.422;14.530;2023-05-16T04:23:08;75.07;;;26.02;;
66095;SDS011;53861;53.422;14.530;2023-05-16T04:25:36;80.20;;;27.40;;
66095;SDS011;53861;53.422;14.530;2023-05-16T04:28:04;85.90;;;29.02;;
66095;SDS011;53861;53.422;14.530;2023-05-16T04:30:33;75.35;;;26.85;;
66095;SDS011;53861;53.422;14.530;2023-05-16T04:33:00;90.60;;;28.35;;
66095;SDS011;53861;53.422;14.530;2023-05-16T04:35:27;88.72;;;28.27;;
66095;SDS011;53861;53.422;14.530;2023-05-16T04:37:54;90.57;;;29.08;;
66095;SDS011;53861;53.422;14.530;2023-05-16T04:40:22;94.88;;;29.42;;
66095;SDS011;53861;53.422;14.530;2023-05-16T04:42:49;105.30;;;31.83;;
66095;SDS011;53861;53.422;14.530;2023-05-16T04:45:19;104.53;;;30.60;;
66095;SDS011;53861;53.422;14.530;2023-05-16T04:47:47;96.72;;;28.95;;
66095;SDS011;53861;53.422;14.530;2023-05-16T04:50:16;116.22;;;33.22;;
66095;SDS011;53861;53.422;14.530;2023-05-16T04:52:43;115.30;;;32.35;;
66095;SDS011;53861;53.422;14.530;2023-05-16T04:55:11;111.60;;;32.45;;
66095;SDS011;53861;53.422;14.530;2023-05-16T04:57:38;111.75;;;30.52;;
66095;SDS011;53861;53.422;14.530;2023-05-16T05:00:06;123.00;;;35.80;;
66095;SDS011;53861;53.422;14.530;2023-05-16T05:02:35;114.22;;;31.30;;
66095;SDS011;53861;53.422;14.530;2023-05-16T05:05:04;115.93;;;31.45;;
66095;SDS011;53861;53.422;14.530;2023-05-16T05:07:33;107.28;;;30.58;;
66095;SDS011;53861;53.422;14.530;2023-05-16T05:10:00;102.95;;;30.95;;
66095;SDS011;53861;53.422;14.530;2023-05-16T05:12:27;106.15;;;32.15;;
66095;SDS011;53861;53.422;14.530;2023-05-16T05:14:55;104.90;;;31.38;;
66095;SDS011;53861;53.422;14.530;2023-05-16T05:17:22;86.03;;;26.05;;
66095;SDS011;53861;53.422;14.530;2023-05-16T05:19:49;100.55;;;30.85;;
66095;SDS011;53861;53.422;14.530;2023-05-16T05:22:18;91.28;;;28.70;;
66095;SDS011;53861;53.422;14.530;2023-05-16T05:24:45;90.63;;;30.50;;
66095;SDS011;53861;53.422;14.530;2023-05-16T05:27:13;86.15;;;28.50;;
66095;SDS011;53861;53.422;14.530;2023-05-16T05:29:40;77.68;;;27.88;;
66095;SDS011;53861;53.422;14.530;2023-05-16T05:32:07;83.13;;;27.85;;
66095;SDS011;53861;53.422;14.530;2023-05-16T05:34:35;70.55;;;26.58;;
66095;SDS011;53861;53.422;14.530;2023-05-16T05:37:02;62.53;;;23.30;;
66095;SDS011;53861;53.422;14.530;2023-05-16T05:39:31;60.15;;;23.23;;
66095;SDS011;53861;53.422;14.530;2023-05-16T05:41:58;64.50;;;24.55;;
66095;SDS011;53861;53.422;14.530;2023-05-16T05:44:26;45.08;;;19.98;;
66095;SDS011;53861;53.422;14.530;2023-05-16T05:46:54;61.25;;;23.77;;
66095;SDS011;53861;53.422;14.530;2023-05-16T05:49:22;55.67;;;21.92;;
66095;SDS011;53861;53.422;14.530;2023-05-16T05:51:49;49.95;;;22.00;;
66095;SDS011;53861;53.422;14.530;2023-05-16T05:54:17;47.58;;;22.27;;
66095;SDS011;53861;53.422;14.530;2023-05-16T05:56:46;52.10;;;20.70;;
66095;SDS011;53861;53.422;14.530;2023-05-16T05:59:13;43.35;;;19.27;;
66095;SDS011;53861;53.422;14.530;2023-05-16T06:01:40;44.63;;;19.33;;
66095;SDS011;53861;53.422;14.530;2023-05-16T06:04:08;46.67;;;19.77;;
66095;SDS011;53861;53.422;14.530;2023-05-16T06:06:35;41.33;;;17.23;;
66095;SDS011;53861;53.422;14.530;2023-05-16T06:09:03;34.17;;;17.45;;
66095;SDS011;53861;53.422;14.530;2023-05-16T06:11:30;30.27;;;15.70;;
66095;SDS011;53861;53.422;14.530;2023-05-16T06:13:58;34.95;;;16.65;;
66095;SDS011;53861;53.422;14.530;2023-05-16T06:16:26;42.70;;;16.60;;
66095;SDS011;53861;53.422;14.530;2023-05-16T06:18:53;29.70;;;15.00;;
66095;SDS011;53861;53.422;14.530;2023-05-16T06:21:20;29.00;;;14.60;;
66095;SDS011;53861;53.422;14.530;2023-05-16T06:23:48;32.47;;;15.10;;
66095;SDS011;53861;53.422;14.530;2023-05-16T06:26:15;26.15;;;12.55;;
66095;SDS011;53861;53.422;14.530;2023-05-16T06:28:42;24.67;;;12.10;;
66095;SDS011;53861;53.422;14.530;2023-05-16T06:31:11;30.85;;;13.57;;
66095;SDS011;53861;53.422;14.530;2023-05-16T06:33:38;28.55;;;13.30;;
66095;SDS011;53861;53.422;14.530;2023-05-16T06:36:10;23.35;;;10.77;;
66095;SDS011;53861;53.422;14.530;2023-05-16T06:38:39;24.42;;;11.20;;
66095;SDS011;53861;53.422;14.530;2023-05-16T06:41:07;21.15;;;10.98;;
66095;SDS011;53861;53.422;14.530;2023-05-16T06:43:41;20.25;;;9.52;;
66095;SDS011;53861;53.422;14.530;2023-05-16T06:46:15;17.77;;;10.68;;
66095;SDS011;53861;53.422;14.530;2023-05-16T06:48:45;25.90;;;10.95;;
66095;SDS011;53861;53.422;14.530;2023-05-16T06:51:15;18.13;;;8.27;;
66095;SDS011;53861;53.422;14.530;2023-05-16T06:53:45;17.95;;;9.93;;
66095;SDS011;53861;53.422;14.530;2023-05-16T06:56:12;20.50;;;10.30;;
66095;SDS011;53861;53.422;14.530;2023-05-16T06:58:42;21.80;;;10.65;;
66095;SDS011;53861;53.422;14.530;2023-05-16T07:01:10;18.10;;;8.98;;
66095;SDS011;53861;53.422;14.530;2023-05-16T07:03:39;18.48;;;9.88;;
66095;SDS011;53861;53.422;14.530;2023-05-16T07:06:06;21.75;;;10.07;;
66095;SDS011;53861;53.422;14.530;2023-05-16T07:08:33;17.45;;;8.98;;
66095;SDS011;53861;53.422;14.530;2023-05-16T07:11:01;17.48;;;8.77;;
66095;SDS011;53861;53.422;14.530;2023-05-16T07:13:28;21.67;;;9.60;;
66095;SDS011;53861;53.422;14.530;2023-05-16T07:15:56;19.77;;;9.35;;
66095;SDS011;53861;53.422;14.530;2023-05-16T07:18:23;19.80;;;9.35;;
66095;SDS011;53861;53.422;14.530;2023-05-16T07:20:52;16.63;;;8.60;;
66095;SDS011;53861;53.422;14.530;2023-05-16T07:23:19;18.40;;;8.43;;
66095;SDS011;53861;53.422;14.530;2023-05-16T07:25:46;15.70;;;7.70;;
66095;SDS011;53861;53.422;14.530;2023-05-16T07:28:14;19.52;;;9.32;;
66095;SDS011;53861;53.422;14.530;2023-05-16T07:30:41;18.00;;;7.78;;
66095;SDS011;53861;53.422;14.530;2023-05-16T07:33:09;14.57;;;8.20;;
66095;SDS011;53861;53.422;14.530;2023-05-16T07:35:36;15.45;;;8.45;;
66095;SDS011;53861;53.422;14.530;2023-05-16T07:38:05;15.65;;;8.27;;
66095;SDS011;53861;53.422;14.530;2023-05-16T07:40:32;16.13;;;8.00;;
66095;SDS011;53861;53.422;14.530;2023-05-16T07:43:00;12.63;;;7.32;;
66095;SDS011;53861;53.422;14.530;2023-05-16T07:45:28;15.77;;;7.43;;
66095;SDS011;53861;53.422;14.530;2023-05-16T07:47:55;19.63;;;8.82;;
66095;SDS011;53861;53.422;14.530;2023-05-16T07:50:24;14.75;;;7.50;;
66095;SDS011;53861;53.422;14.530;2023-05-16T07:52:52;13.20;;;7.35;;
66095;SDS011;53861;53.422;14.530;2023-05-16T07:55:20;13.23;;;7.40;;
66095;SDS011;53861;53.422;14.530;2023-05-16T07:57:48;14.80;;;7.00;;
66095;SDS011;53861;53.422;14.530;2023-05-16T08:00:16;14.05;;;6.45;;
66095;SDS011;53861;53.422;14.530;2023-05-16T08:02:44;17.65;;;7.72;;
66095;SDS011;53861;53.422;14.530;2023-05-16T08:05:12;13.27;;;6.97;;
66095;SDS011;53861;53.422;14.530;2023-05-16T08:07:39;13.98;;;7.18;;
66095;SDS011;53861;53.422;14.530;2023-05-16T08:10:06;13.40;;;5.78;;
66095;SDS011;53861;53.422;14.530;2023-05-16T08:12:36;15.63;;;7.07;;
66095;SDS011;53861;53.422;14.530;2023-05-16T08:15:03;15.50;;;6.88;;
66095;SDS011;53861;53.422;14.530;2023-05-16T08:17:31;16.23;;;5.75;;
66095;SDS011;53861;53.422;14.530;2023-05-16T08:19:58;14.35;;;6.60;;
66095;SDS011;53861;53.422;14.530;2023-05-16T08:22:26;12.57;;;6.45;;
66095;SDS011;53861;53.422;14.530;2023-05-16T08:24:53;16.98;;;6.30;;
66095;SDS011;53861;53.422;14.530;2023-05-16T08:27:22;12.80;;;6.60;;
66095;SDS011;53861;53.422;14.530;2023-05-16T08:29:51;15.75;;;7.22;;
66095;SDS011;53861;53.422;14.530;2023-05-16T08:32:18;14.68;;;6.55;;
66095;SDS011;53861;53.422;14.530;2023-05-16T08:34:46;14.35;;;6.88;;
66095;SDS011;53861;53.422;14.530;2023-05-16T08:37:14;14.10;;;6.97;;
66095;SDS011;53861;53.422;14.530;2023-05-16T08:39:41;15.18;;;6.68;;
66095;SDS011;53861;53.422;14.530;2023-05-16T08:42:09;15.02;;;6.22;;
66095;SDS011;53861;53.422;14.530;2023-05-16T08:44:36;12.45;;;6.20;;
66095;SDS011;53861;53.422;14.530;2023-05-16T08:47:06;14.07;;;6.25;;
66095;SDS011;53861;53.422;14.530;2023-05-16T08:49:38;12.27;;;6.35;;
66095;SDS011;53861;53.422;14.530;2023-05-16T08:52:07;15.90;;;6.82;;
66095;SDS011;53861;53.422;14.530;2023-05-16T08:54:35;14.15;;;7.55;;
66095;SDS011;53861;53.422;14.530;2023-05-16T08:57:03;13.32;;;5.63;;
66095;SDS011;53861;53.422;14.530;2023-05-16T08:59:31;12.90;;;6.43;;
66095;SDS011;53861;53.422;14.530;2023-05-16T09:02:00;12.88;;;6.60;;
66095;SDS011;53861;53.422;14.530;2023-05-16T09:04:29;16.42;;;6.97;;
66095;SDS011;53861;53.422;14.530;2023-05-16T09:06:57;13.95;;;6.60;;
66095;SDS011;53861;53.422;14.530;2023-05-16T09:09:24;13.63;;;5.85;;
66095;SDS011;53861;53.422;14.530;2023-05-16T09:11:52;12.43;;;5.95;;
66095;SDS011;53861;53.422;14.530;2023-05-16T09:14:19;12.10;;;6.18;;
66095;SDS011;53861;53.422;14.530;2023-05-16T09:16:52;12.90;;;5.82;;
66095;SDS011;53861;53.422;14.530;2023-05-16T09:19:33;15.00;;;6.88;;
66095;SDS011;53861;53.422;14.530;2023-05-16T09:22:04;16.77;;;7.35;;
66095;SDS011;53861;53.422;14.530;2023-05-16T09:24:32;16.80;;;8.23;;
66095;SDS011;53861;53.422;14.530;2023-05-16T09:27:06;12.05;;;5.35;;
66095;SDS011;53861;53.422;14.530;2023-05-16T09:29:35;11.52;;;5.15;;
66095;SDS011;53861;53.422;14.530;2023-05-16T09:32:08;8.93;;;4.05;;
66095;SDS011;53861;53.422;14.530;2023-05-16T09:34:43;10.45;;;4.05;;
66095;SDS011;53861;53.422;14.530;2023-05-16T09:37:13;13.23;;;4.57;;
66095;SDS011;53861;53.422;14.530;2023-05-16T09:39:46;8.15;;;3.75;;
66095;SDS011;53861;53.422;14.530;2023-05-16T09:44:51;8.15;;;3.97;;
66095;SDS011;53861;53.422;14.530;2023-05-16T09:47:21;12.68;;;4.30;;
66095;SDS011;53861;53.422;14.530;2023-05-16T09:49:52;7.95;;;3.55;;
66095;SDS011;53861;53.422;14.530;2023-05-16T09:52:19;7.25;;;3.53;;
66095;SDS011;53861;53.422;14.530;2023-05-16T09:54:47;12.52;;;5.00;;
66095;SDS011;53861;53.422;14.530;2023-05-16T09:57:16;9.80;;;4.35;;
66095;SDS011;53861;53.422;14.530;2023-05-16T09:59:44;8.73;;;4.10;;
66095;SDS011;53861;53.422;14.530;2023-05-16T10:02:11;11.23;;;3.80;;
66095;SDS011;53861;53.422;14.530;2023-05-16T10:04:39;12.77;;;4.18;;
66095;SDS011;53861;53.422;14.530;2023-05-16T10:07:08;15.05;;;3.70;;
66095;SDS011;53861;53.422;14.530;2023-05-16T10:09:38;9.25;;;3.38;;
66095;SDS011;53861;53.422;14.530;2023-05-16T10:12:07;12.40;;;3.67;;
66095;SDS011;53861;53.422;14.530;2023-05-16T10:14:38;8.67;;;3.87;;
66095;SDS011;53861;53.422;14.530;2023-05-16T10:17:07;11.52;;;4.55;;
66095;SDS011;53861;53.422;14.530;2023-05-16T10:19:40;8.98;;;3.30;;
66095;SDS011;53861;53.422;14.530;2023-05-16T10:22:10;11.45;;;3.53;;
66095;SDS011;53861;53.422;14.530;2023-05-16T10:24:42;9.38;;;3.80;;
66095;SDS011;53861;53.422;14.530;2023-05-16T10:27:14;8.73;;;3.15;;
66095;SDS011;53861;53.422;14.530;2023-05-16T10:29:41;12.25;;;3.50;;
66095;SDS011;53861;53.422;14.530;2023-05-16T10:32:10;9.35;;;3.00;;
66095;SDS011;53861;53.422;14.530;2023-05-16T10:34:40;10.30;;;2.70;;
66095;SDS011;53861;53.422;14.530;2023-05-16T10:37:09;7.18;;;2.80;;
66095;SDS011;53861;53.422;14.530;2023-05-16T10:39:37;13.23;;;2.90;;
66095;SDS011;53861;53.422;14.530;2023-05-16T10:42:06;9.68;;;2.78;;
66095;SDS011;53861;53.422;14.530;2023-05-16T10:44:33;8.02;;;2.28;;
66095;SDS011;53861;53.422;14.530;2023-05-16T10:47:04;9.93;;;2.75;;
66095;SDS011;53861;53.422;14.530;2023-05-16T10:49:33;9.65;;;2.80;;
66095;SDS011;53861;53.422;14.530;2023-05-16T10:52:05;10.98;;;2.60;;
66095;SDS011;53861;53.422;14.530;2023-05-16T10:54:36;8.65;;;3.05;;
66095;SDS011;53861;53.422;14.530;2023-05-16T10:57:07;9.43;;;2.90;;
66095;SDS011;53861;53.422;14.530;2023-05-16T10:59:43;7.88;;;2.72;;
66095;SDS011;53861;53.422;14.530;2023-05-16T11:02:20;7.32;;;2.67;;
66095;SDS011;53861;53.422;14.530;2023-05-16T11:04:49;6.78;;;2.55;;
66095;SDS011;53861;53.422;14.530;2023-05-16T11:07:18;3.70;;;1.73;;
66095;SDS011;53861;53.422;14.530;2023-05-16T11:09:49;6.07;;;2.40;;
66095;SDS011;53861;53.422;14.530;2023-05-16T11:12:35;7.10;;;2.47;;
66095;SDS011;53861;53.422;14.530;2023-05-16T11:15:16;6.82;;;2.25;;
66095;SDS011;53861;53.422;14.530;2023-05-16T11:17:49;10.70;;;2.60;;
66095;SDS011;53861;53.422;14.530;2023-05-16T11:20:25;10.00;;;2.30;;
66095;SDS011;53861;53.422;14.530;2023-05-16T11:25:50;5.90;;;2.10;;
66095;SDS011;53861;53.422;14.530;2023-05-16T11:28:19;7.80;;;2.45;;
66095;SDS011;53861;53.422;14.530;2023-05-16T11:30:47;6.95;;;2.90;;
66095;SDS011;53861;53.422;14.530;2023-05-16T11:33:17;10.25;;;2.15;;
66095;SDS011;53861;53.422;14.530;2023-05-16T11:35:58;5.63;;;2.08;;
66095;SDS011;53861;53.422;14.530;2023-05-16T11:38:28;11.82;;;3.65;;
66095;SDS011;53861;53.422;14.530;2023-05-16T11:41:02;7.68;;;2.13;;
66095;SDS011;53861;53.422;14.530;2023-05-16T11:43:35;10.52;;;2.53;;
66095;SDS011;53861;53.422;14.530;2023-05-16T11:46:04;7.78;;;2.28;;
66095;SDS011;53861;53.422;14.530;2023-05-16T11:48:32;6.68;;;2.15;;
66095;SDS011;53861;53.422;14.530;2023-05-16T11:50:59;8.13;;;2.30;;
66095;SDS011;53861;53.422;14.530;2023-05-16T11:53:26;13.65;;;2.90;;
66095;SDS011;53861;53.422;14.530;2023-05-16T11:55:54;10.77;;;3.30;;
66095;SDS011;53861;53.422;14.530;2023-05-16T11:58:26;7.03;;;2.50;;
66095;SDS011;53861;53.422;14.530;2023-05-16T12:00:53;8.60;;;2.55;;
66095;SDS011;53861;53.422;14.530;2023-05-16T12:03:21;7.40;;;2.45;;
66095;SDS011;53861;53.422;14.530;2023-05-16T12:05:49;8.55;;;2.92;;
66095;SDS011;53861;53.422;14.530;2023-05-16T12:08:17;7.18;;;2.40;;
66095;SDS011;53861;53.422;14.530;2023-05-16T12:10:46;6.95;;;2.40;;
66095;SDS011;53861;53.422;14.530;2023-05-16T12:13:15;9.68;;;2.60;;
66095;SDS011;53861;53.422;14.530;2023-05-16T12:15:46;12.35;;;2.30;;
66095;SDS011;53861;53.422;14.530;2023-05-16T12:18:14;14.55;;;2.40;;
66095;SDS011;53861;53.422;14.530;2023-05-16T12:20:42;8.23;;;2.42;;
66095;SDS011;53861;53.422;14.530;2023-05-16T12:23:10;11.68;;;2.83;;
66095;SDS011;53861;53.422;14.530;2023-05-16T12:25:38;7.15;;;2.55;;
66095;SDS011;53861;53.422;14.530;2023-05-16T12:28:12;10.52;;;3.03;;
66095;SDS011;53861;53.422;14.530;2023-05-16T12:30:42;12.02;;;2.70;;
66095;SDS011;53861;53.422;14.530;2023-05-16T12:33:12;11.80;;;2.33;;
66095;SDS011;53861;53.422;14.530;2023-05-16T12:35:41;5.95;;;1.98;;
66095;SDS011;53861;53.422;14.530;2023-05-16T12:38:09;13.65;;;2.47;;
66095;SDS011;53861;53.422;14.530;2023-05-16T12:40:38;8.95;;;2.67;;
66095;SDS011;53861;53.422;14.530;2023-05-16T12:43:11;9.82;;;2.58;;
66095;SDS011;53861;53.422;14.530;2023-05-16T12:45:39;11.45;;;2.60;;
66095;SDS011;53861;53.422;14.530;2023-05-16T12:48:12;9.95;;;2.10;;
66095;SDS011;53861;53.422;14.530;2023-05-16T12:50:39;11.30;;;2.33;;
66095;SDS011;53861;53.422;14.530;2023-05-16T12:53:09;8.80;;;2.45;;
66095;SDS011;53861;53.422;14.530;2023-05-16T12:55:38;6.18;;;2.38;;
66095;SDS011;53861;53.422;14.530;2023-05-16T12:58:07;9.80;;;2.45;;
66095;SDS011;53861;53.422;14.530;2023-05-16T13:00:34;11.15;;;2.80;;
66095;SDS011;53861;53.422;14.530;2023-05-16T13:03:02;9.07;;;2.55;;
66095;SDS011;53861;53.422;14.530;2023-05-16T13:05:32;8.80;;;2.47;;
66095;SDS011;53861;53.422;14.530;2023-05-16T13:07:59;14.57;;;2.92;;
66095;SDS011;53861;53.422;14.530;2023-05-16T13:10:27;9.75;;;2.65;;
66095;SDS011;53861;53.422;14.530;2023-05-16T13:12:54;10.88;;;3.20;;
66095;SDS011;53861;53.422;14.530;2023-05-16T13:15:23;9.20;;;2.58;;
66095;SDS011;53861;53.422;14.530;2023-05-16T13:17:52;12.98;;;2.95;;
66095;SDS011;53861;53.422;14.530;2023-05-16T13:20:20;10.32;;;2.80;;
66095;SDS011;53861;53.422;14.530;2023-05-16T13:22:48;9.48;;;2.67;;
66095;SDS011;53861;53.422;14.530;2023-05-16T13:25:16;8.50;;;2.92;;
66095;SDS011;53861;53.422;14.530;2023-05-16T13:27:43;6.95;;;2.08;;
66095;SDS011;53861;53.422;14.530;2023-05-16T13:30:11;12.52;;;2.53;;
66095;SDS011;53861;53.422;14.530;2023-05-16T13:32:38;8.98;;;2.53;;
66095;SDS011;53861;53.422;14.530;2023-05-16T13:35:05;10.40;;;2.55;;
66095;SDS011;53861;53.422;14.530;2023-05-16T13:37:34;10.18;;;3.10;;
66095;SDS011;53861;53.422;14.530;2023-05-16T13:40:04;13.93;;;2.80;;
66095;SDS011;53861;53.422;14.530;2023-05-16T13:42:34;8.20;;;2.30;;
66095;SDS011;53861;53.422;14.530;2023-05-16T13:45:03;6.85;;;2.20;;
66095;SDS011;53861;53.422;14.530;2023-05-16T13:47:31;7.18;;;2.10;;
66095;SDS011;53861;53.422;14.530;2023-05-16T13:49:58;8.23;;;1.75;;
66095;SDS011;53861;53.422;14.530;2023-05-16T13:52:30;6.78;;;1.75;;
66095;SDS011;53861;53.422;14.530;2023-05-16T13:54:57;12.13;;;1.90;;
66095;SDS011;53861;53.422;14.530;2023-05-16T13:57:26;7.07;;;1.98;;
66095;SDS011;53861;53.422;14.530;2023-05-16T13:59:53;9.13;;;1.95;;
66095;SDS011;53861;53.422;14.530;2023-05-16T14:02:21;9.40;;;1.95;;
66095;SDS011;53861;53.422;14.530;2023-05-16T14:04:50;11.35;;;2.88;;
66095;SDS011;53861;53.422;14.530;2023-05-16T14:07:17;6.70;;;1.80;;
66095;SDS011;53861;53.422;14.530;2023-05-16T14:09:45;7.03;;;2.10;;
66095;SDS011;53861;53.422;14.530;2023-05-16T14:12:12;6.82;;;2.10;;
66095;SDS011;53861;53.422;14.530;2023-05-16T14:14:41;8.07;;;2.03;;
66095;SDS011;53861;53.422;14.530;2023-05-16T14:17:08;11.73;;;2.30;;
66095;SDS011;53861;53.422;14.530;2023-05-16T14:19:35;11.43;;;2.22;;
66095;SDS011;53861;53.422;14.530;2023-05-16T14:22:03;8.98;;;2.38;;
66095;SDS011;53861;53.422;14.530;2023-05-16T14:24:30;11.43;;;2.15;;
66095;SDS011;53861;53.422;14.530;2023-05-16T14:26:58;8.95;;;1.80;;
66095;SDS011;53861;53.422;14.530;2023-05-16T14:29:25;8.65;;;1.80;;
66095;SDS011;53861;53.422;14.530;2023-05-16T14:31:54;7.80;;;1.70;;
66095;SDS011;53861;53.422;14.530;2023-05-16T14:34:27;9.27;;;1.75;;
66095;SDS011;53861;53.422;14.530;2023-05-16T14:39:21;7.20;;;1.60;;